Time;durP1;ratioP1;P1;durP2;ratioP2;P2;SDS_P1;SDS_P2;PMS_P1;PMS_P2;Temp;Humidity;BMP_temperature;BMP_pressure;BME280_temperature;BME280_humidity;BME280_pressure;Samples;Min_cycle;Max_cycle;Signal;HPM_P1;HPM_P2
2022/09/25 00:01:12;;;;;;;10.80;5.80;;;;;;;12.50;100.00;101152.91;4966820;28;20037;-76
2022/09/25 00:03:39;;;;;;;16.55;6.78;;;;;;;12.43;100.00;101158.75;4966826;28;20034;-76
2022/09/25 00:06:07;;;;;;;17.67;7.10;;;;;;;12.48;100.00;101150.47;4982800;28;20539;-77
2022/09/25 00:08:34;;;;;;;12.05;6.60;;;;;;;12.50;100.00;101158.91;4975637;28;20034;-77
2022/09/25 00:11:12;;;;;;;8.85;6.22;;;;;;;12.59;100.00;101154.56;4964543;28;20547;-76
2022/09/25 00:13:39;;;;;;;12.95;6.30;;;;;;;12.45;100.00;101156.81;4980381;28;20429;-76
2022/09/25 00:16:07;;;;;;;15.40;8.00;;;;;;;12.43;100.00;101153.56;4982787;28;20250;-77
2022/09/25 00:21:17;;;;;;;15.40;7.30;;;;;;;12.37;100.00;101154.16;4980996;28;20618;-76
2022/09/25 00:23:43;;;;;;;15.25;7.30;;;;;;;12.50;100.00;101150.31;4982293;28;20027;-76
2022/09/25 00:26:10;;;;;;;13.07;6.95;;;;;;;12.45;100.00;101153.38;4980138;28;20031;-76
2022/09/25 00:28:37;;;;;;;14.43;6.82;;;;;;;12.36;100.00;101151.75;4981113;28;20104;-77
2022/09/25 00:31:04;;;;;;;14.50;6.30;;;;;;;12.30;100.00;101145.41;4981079;28;20046;-76
2022/09/25 00:33:31;;;;;;;13.63;6.65;;;;;;;12.29;100.00;101145.56;4966866;28;20049;-76
2022/09/25 00:36:03;;;;;;;14.35;6.43;;;;;;;12.29;100.00;101148.16;4982778;28;20073;-77
2022/09/25 00:38:30;;;;;;;13.40;6.45;;;;;;;12.31;100.00;101147.00;4984918;28;20125;-76
2022/09/25 00:40:56;;;;;;;12.82;6.18;;;;;;;12.29;100.00;101148.97;4980991;28;20034;-76
2022/09/25 00:43:43;;;;;;;14.70;5.93;;;;;;;12.29;100.00;101150.75;4984145;28;20999;-76
2022/09/25 00:46:30;;;;;;;9.40;5.15;;;;;;;12.29;100.00;101153.34;4980856;28;20137;-77
2022/09/25 00:49:04;;;;;;;12.65;4.82;;;;;;;12.29;100.00;101154.16;4978310;28;20629;-77
2022/09/25 00:51:40;;;;;;;14.85;4.97;;;;;;;12.32;100.00;101151.25;4986901;28;20604;-77
2022/09/25 00:54:14;;;;;;;9.45;3.70;;;;;;;12.30;100.00;101150.59;4982358;28;20507;-76
2022/09/25 00:56:43;;;;;;;9.65;4.30;;;;;;;12.30;100.00;101157.56;4968023;28;20054;-76
2022/09/25 00:59:15;;;;;;;11.93;4.10;;;;;;;12.26;100.00;101162.25;4978901;28;20042;-76
2022/09/25 01:01:40;;;;;;;12.13;3.67;;;;;;;12.31;100.00;101161.81;4982424;28;20038;-76
2022/09/25 01:04:07;;;;;;;9.02;3.40;;;;;;;12.24;100.00;101164.22;4964902;28;20057;-76
2022/09/25 01:06:34;;;;;;;9.95;3.38;;;;;;;12.19;100.00;101167.31;4983246;28;20038;-77
2022/09/25 01:09:00;;;;;;;10.00;3.60;;;;;;;12.20;100.00;101166.31;4981832;28;20030;-77
2022/09/25 01:11:26;;;;;;;11.18;4.00;;;;;;;12.19;100.00;101167.31;4999801;28;20645;-76
2022/09/25 01:13:55;;;;;;;19.83;4.70;;;;;;;12.19;100.00;101166.50;4982533;28;20499;-76
2022/09/25 01:16:34;;;;;;;14.52;3.22;;;;;;;12.19;100.00;101163.91;4985772;28;20075;-77
2022/09/25 01:19:10;;;;;;;16.05;4.03;;;;;;;12.20;100.00;101161.13;4969651;28;20034;-76
2022/09/25 01:21:50;;;;;;;8.15;3.10;;;;;;;12.18;100.00;101162.25;4982891;28;20041;-77
2022/09/25 01:24:39;;;;;;;14.68;3.50;;;;;;;12.15;100.00;101162.56;4985598;28;20038;-76
2022/09/25 01:27:28;;;;;;;9.18;2.63;;;;;;;12.16;100.00;101157.22;4983258;28;20039;-76
2022/09/25 01:30:15;;;;;;;10.65;3.03;;;;;;;12.14;100.00;101166.94;4971671;28;20442;-76
2022/09/25 01:32:56;;;;;;;9.43;3.50;;;;;;;12.17;100.00;101171.84;4982957;28;20030;-76
2022/09/25 01:35:34;;;;;;;13.57;2.83;;;;;;;12.21;100.00;101165.34;4985449;28;20474;-77
2022/09/25 01:38:30;;;;;;;13.13;2.30;;;;;;;12.25;100.00;101166.66;4986375;28;20035;-76
2022/09/25 01:40:59;;;;;;;9.00;2.85;;;;;;;12.26;100.00;101164.88;4984153;28;20124;-77
2022/09/25 01:43:33;;;;;;;6.95;2.67;;;;;;;12.16;100.00;101180.59;4984190;28;20034;-76
2022/09/25 01:46:04;;;;;;;11.32;2.47;;;;;;;12.13;100.00;101174.91;4985892;28;20038;-76
2022/09/25 01:48:32;;;;;;;11.98;2.70;;;;;;;12.11;100.00;101180.28;4970902;28;20042;-76
2022/09/25 01:51:09;;;;;;;15.18;3.10;;;;;;;12.15;100.00;101172.94;4999830;28;20031;-76
2022/09/25 01:53:48;;;;;;;14.32;2.78;;;;;;;12.13;100.00;101173.13;4997204;28;20030;-76
2022/09/25 01:56:22;;;;;;;19.35;3.58;;;;;;;12.14;100.00;101182.56;4983879;28;20030;-77
2022/09/25 01:58:55;;;;;;;11.65;2.88;;;;;;;12.16;100.00;101183.19;4983782;28;20167;-76
2022/09/25 02:01:25;;;;;;;14.10;3.58;;;;;;;12.19;100.00;101187.28;5001901;28;20061;-76
2022/09/25 02:03:57;;;;;;;10.13;2.75;;;;;;;12.10;100.00;101188.22;4986267;28;20034;-77
2022/09/25 02:06:24;;;;;;;8.98;2.58;;;;;;;12.07;100.00;101184.13;4985534;28;20121;-76
2022/09/25 02:09:28;;;;;;;9.50;3.13;;;;;;;12.07;100.00;101179.78;4969565;28;20081;-76
2022/09/25 02:11:59;;;;;;;11.90;2.78;;;;;;;11.99;100.00;101178.91;4999539;28;20042;-77
2022/09/25 02:14:34;;;;;;;11.77;2.95;;;;;;;12.00;100.00;101177.97;4985610;28;20029;-76
2022/09/25 02:17:04;;;;;;;13.13;3.33;;;;;;;12.03;100.00;101175.03;5001781;28;20066;-75
2022/09/25 02:22:22;;;;;;;9.45;2.97;;;;;;;11.95;100.00;101172.41;4986666;28;20092;-76
2022/09/25 02:25:02;;;;;;;16.98;3.50;;;;;;;11.96;100.00;101176.63;4969151;28;20093;-76
2022/09/25 02:27:28;;;;;;;8.40;3.20;;;;;;;11.93;100.00;101177.75;4986164;28;20084;-76
2022/09/25 02:29:55;;;;;;;19.50;3.58;;;;;;;11.89;100.00;101173.81;4985599;28;20125;-77
2022/09/25 02:32:25;;;;;;;12.07;3.97;;;;;;;11.99;100.00;101171.94;4986689;28;20034;-76
2022/09/25 02:34:51;;;;;;;12.35;3.28;;;;;;;11.98;100.00;101175.50;4968597;28;20503;-76
2022/09/25 02:37:17;;;;;;;10.38;3.20;;;;;;;11.99;100.00;101173.72;4986587;28;20700;-77
2022/09/25 02:39:46;;;;;;;11.60;3.38;;;;;;;11.95;100.00;101168.00;4982926;28;20038;-75
2022/09/25 02:42:30;;;;;;;10.02;4.00;;;;;;;11.96;100.00;101174.03;4982462;28;20040;-77
2022/09/25 02:45:25;;;;;;;11.93;3.60;;;;;;;11.94;100.00;101176.81;4969641;28;20038;-76
2022/09/25 02:48:04;;;;;;;15.00;3.40;;;;;;;11.96;100.00;101181.81;4985476;28;20042;-75
2022/09/25 02:51:04;;;;;;;14.18;3.45;;;;;;;11.92;100.00;101170.09;4969385;28;20519;-76
2022/09/25 02:53:32;;;;;;;15.57;3.15;;;;;;;11.91;100.00;101173.69;5000948;28;20065;-77
2022/09/25 02:56:17;;;;;;;8.15;3.40;;;;;;;11.99;100.00;101184.13;4983231;28;20042;-76
2022/09/25 02:58:49;;;;;;;8.50;3.08;;;;;;;12.03;100.00;101175.03;4985080;28;20049;-76
2022/09/25 03:01:17;;;;;;;13.40;3.70;;;;;;;12.00;100.00;101170.97;4983718;28;20034;-76
2022/09/25 03:03:50;;;;;;;15.00;3.78;;;;;;;12.00;100.00;101175.34;4970118;28;20038;-75
2022/09/25 03:06:16;;;;;;;10.90;3.75;;;;;;;11.95;100.00;101181.00;4984457;28;20050;-76
2022/09/25 03:08:48;;;;;;;12.98;3.45;;;;;;;11.95;100.00;101178.41;4982106;28;20058;-77
2022/09/25 03:11:18;;;;;;;13.95;3.67;;;;;;;11.94;100.00;101187.19;4985487;28;20044;-76
2022/09/25 03:13:43;;;;;;;13.70;4.00;;;;;;;11.86;100.00;101185.31;4968466;28;20454;-75
2022/09/25 03:16:24;;;;;;;12.85;3.92;;;;;;;11.86;100.00;101190.50;4984816;28;20026;-76
2022/09/25 03:18:50;;;;;;;14.85;4.40;;;;;;;11.89;100.00;101184.22;4982135;28;20057;-76
2022/09/25 03:21:16;;;;;;;13.73;4.90;;;;;;;11.83;100.00;101183.03;4983872;28;20085;-75
2022/09/25 03:23:41;;;;;;;14.23;3.85;;;;;;;11.87;100.00;101189.56;4985526;28;20127;-76
2022/09/25 03:26:07;;;;;;;11.93;3.13;;;;;;;11.79;100.00;101179.13;4985834;28;20033;-75
2022/09/25 03:28:32;;;;;;;13.45;3.17;;;;;;;11.85;100.00;101185.50;4981463;28;20034;-75
2022/09/25 03:31:06;;;;;;;10.38;3.15;;;;;;;11.84;100.00;101189.03;4983691;28;20034;-76
2022/09/25 03:33:37;;;;;;;17.42;3.35;;;;;;;11.85;100.00;101188.91;4987335;28;20109;-75
2022/09/25 03:36:15;;;;;;;8.93;3.05;;;;;;;11.75;100.00;101182.97;4982261;28;20423;-76
2022/09/25 03:38:42;;;;;;;14.15;4.20;;;;;;;11.66;100.00;101189.94;4981749;28;20042;-76
2022/09/25 03:41:09;;;;;;;11.02;2.78;;;;;;;11.63;100.00;101184.22;4983786;28;20148;-76
2022/09/25 03:43:36;;;;;;;13.68;2.88;;;;;;;11.72;100.00;101190.28;4985908;28;20027;-76
2022/09/25 03:46:03;;;;;;;13.25;3.50;;;;;;;11.69;100.00;101189.59;4967639;28;20042;-76
2022/09/25 03:48:29;;;;;;;12.45;2.83;;;;;;;11.67;100.00;101191.53;4983391;28;21893;-76
2022/09/25 03:50:55;;;;;;;11.00;3.08;;;;;;;11.65;100.00;101190.06;4969673;28;20049;-76
2022/09/25 03:53:21;;;;;;;10.45;2.50;;;;;;;11.61;100.00;101183.56;4981328;28;20031;-76
2022/09/25 03:55:47;;;;;;;15.90;3.55;;;;;;;11.67;100.00;101177.75;4967274;28;20034;-76
2022/09/25 03:58:15;;;;;;;7.78;2.63;;;;;;;11.58;100.00;101183.84;4980815;28;20122;-75
2022/09/25 04:00:41;;;;;;;11.18;2.55;;;;;;;11.56;100.00;101172.81;4985240;28;20036;-76
2022/09/25 04:03:07;;;;;;;7.93;3.08;;;;;;;11.58;100.00;101189.88;4968626;28;20575;-76
2022/09/25 04:05:33;;;;;;;10.55;2.60;;;;;;;11.57;100.00;101190.84;4984942;28;20042;-76
2022/09/25 04:08:00;;;;;;;6.82;2.28;;;;;;;11.51;100.00;101188.88;4981204;28;20073;-76
2022/09/25 04:10:26;;;;;;;8.50;2.72;;;;;;;11.49;100.00;101186.41;4984020;28;20038;-76
2022/09/25 04:12:54;;;;;;;10.80;2.58;;;;;;;11.49;100.00;101191.63;4983057;28;20039;-76
2022/09/25 04:15:22;;;;;;;8.23;2.35;;;;;;;11.47;100.00;101190.94;4985744;28;20038;-75
2022/09/25 04:17:48;;;;;;;6.80;2.00;;;;;;;11.47;100.00;101177.97;4979304;28;20037;-76
2022/09/25 04:20:14;;;;;;;11.55;2.55;;;;;;;11.46;100.00;101180.72;4983076;28;20039;-76
2022/09/25 04:22:39;;;;;;;8.88;2.10;;;;;;;11.53;100.00;101180.91;4983948;28;20034;-76
2022/09/25 04:25:06;;;;;;;16.85;2.20;;;;;;;11.50;100.00;101172.44;4983263;28;20030;-76
2022/09/25 04:27:32;;;;;;;12.75;2.05;;;;;;;11.49;100.00;101172.63;4970512;28;20038;-76
2022/09/25 04:29:57;;;;;;;7.50;2.05;;;;;;;11.43;100.00;101176.66;4969985;28;20049;-76
2022/09/25 04:35:07;;;;;;;7.38;1.80;;;;;;;11.36;100.00;101180.81;4984103;28;20045;-77
2022/09/25 04:37:32;;;;;;;6.90;2.17;;;;;;;11.36;100.00;101179.97;4982746;28;20034;-76
2022/09/25 04:39:58;;;;;;;10.40;1.73;;;;;;;11.40;100.00;101178.72;4984041;28;20048;-76
2022/09/25 04:42:24;;;;;;;6.20;1.77;;;;;;;11.37;100.00;101189.41;4980942;28;20035;-76
2022/09/25 04:44:54;;;;;;;10.73;1.70;;;;;;;11.37;100.00;101182.44;4983249;28;20078;-76
2022/09/25 04:47:21;;;;;;;14.98;2.80;;;;;;;11.37;100.00;101179.81;4995527;28;20034;-76
2022/09/25 04:49:47;;;;;;;6.00;1.67;;;;;;;11.35;100.00;101184.34;4987638;28;20120;-75
2022/09/25 04:52:14;;;;;;;13.00;3.10;;;;;;;11.37;100.00;101177.22;4986019;28;20117;-76
2022/09/25 04:54:41;;;;;;;8.95;2.45;;;;;;;11.34;100.00;101176.72;5001387;28;20034;-76
2022/09/25 04:57:20;;;;;;;7.53;1.75;;;;;;;11.30;100.00;101177.03;4966180;28;20035;-76
2022/09/25 04:59:47;;;;;;;12.20;1.90;;;;;;;11.30;100.00;101179.63;4986797;28;20034;-76
2022/09/25 05:02:13;;;;;;;5.93;1.95;;;;;;;11.30;100.00;101184.81;4985626;28;20031;-77
2022/09/25 05:04:39;;;;;;;9.13;1.75;;;;;;;11.27;100.00;101187.72;4983885;28;20030;-76
2022/09/25 05:07:04;;;;;;;8.00;1.85;;;;;;;11.28;100.00;101188.53;4969218;28;20073;-76
2022/09/25 05:09:30;;;;;;;6.05;1.65;;;;;;;11.28;100.00;101189.34;4986980;28;20514;-76
2022/09/25 05:11:56;;;;;;;6.68;1.70;;;;;;;11.32;100.00;101189.03;4999138;28;20065;-76
2022/09/25 05:14:22;;;;;;;7.28;1.77;;;;;;;11.33;100.00;101182.91;4986229;28;20096;-76
2022/09/25 05:16:48;;;;;;;7.88;1.77;;;;;;;11.30;100.00;101192.63;4987201;28;20402;-76
2022/09/25 05:19:14;;;;;;;6.13;1.92;;;;;;;11.35;100.00;101197.34;4986916;28;20030;-77
2022/09/25 05:21:40;;;;;;;8.60;2.00;;;;;;;11.33;100.00;101191.50;4985744;28;20105;-76
2022/09/25 05:24:07;;;;;;;14.43;1.90;;;;;;;11.32;100.00;101194.22;4984850;28;20126;-76
2022/09/25 05:26:33;;;;;;;6.75;2.03;;;;;;;11.28;100.00;101202.34;4981667;28;20161;-76
2022/09/25 05:28:59;;;;;;;5.18;1.63;;;;;;;11.24;100.00;101198.38;4986353;28;20057;-76
2022/09/25 05:31:25;;;;;;;8.73;1.80;;;;;;;11.20;100.00;101198.84;4967887;28;20034;-75
2022/09/25 05:33:51;;;;;;;12.63;2.38;;;;;;;11.17;100.00;101199.97;4986958;28;20132;-76
2022/09/25 05:36:17;;;;;;;7.18;1.80;;;;;;;11.19;100.00;101202.41;4983188;28;20061;-76
2022/09/25 05:38:43;;;;;;;9.15;1.48;;;;;;;11.16;100.00;101200.13;4988331;28;20091;-76
2022/09/25 05:41:09;;;;;;;12.13;1.80;;;;;;;11.20;100.00;101194.47;4981480;28;20051;-76
2022/09/25 05:43:46;;;;;;;8.73;1.60;;;;;;;11.14;100.00;101194.28;4985427;28;20524;-76
2022/09/25 05:46:12;;;;;;;8.02;1.92;;;;;;;11.10;100.00;101191.16;4982708;28;20034;-75
2022/09/25 05:48:37;;;;;;;8.55;1.98;;;;;;;11.05;100.00;101194.19;4985135;28;20030;-75
2022/09/25 05:51:03;;;;;;;7.07;1.63;;;;;;;11.01;100.00;101198.03;4985343;28;20034;-75
2022/09/25 05:53:29;;;;;;;13.10;1.95;;;;;;;10.98;100.00;101200.97;4987463;28;20118;-75
2022/09/25 05:55:57;;;;;;;7.65;2.17;;;;;;;10.95;100.00;101203.03;4982044;28;20128;-75
2022/09/25 05:58:24;;;;;;;7.45;1.95;;;;;;;10.88;100.00;101198.41;4986032;28;20038;-76
2022/09/25 06:00:50;;;;;;;5.70;1.60;;;;;;;10.87;100.00;101191.59;4971311;28;20561;-75
2022/09/25 06:03:17;;;;;;;7.53;1.70;;;;;;;10.93;100.00;101202.38;4984005;28;20065;-76
2022/09/25 06:05:45;;;;;;;9.93;2.30;;;;;;;10.90;100.00;101196.47;4986724;28;20034;-75
2022/09/25 06:08:12;;;;;;;10.40;2.10;;;;;;;10.87;100.00;101201.97;4984278;28;20027;-76
2022/09/25 06:10:38;;;;;;;4.78;1.80;;;;;;;10.85;100.00;101197.88;5001359;28;20514;-75
2022/09/25 06:13:04;;;;;;;9.88;1.80;;;;;;;10.84;100.00;101198.88;4983957;28;20081;-77
2022/09/25 06:15:36;;;;;;;9.93;1.88;;;;;;;10.81;100.00;101200.00;4983606;28;20443;-76
2022/09/25 06:18:03;;;;;;;7.07;2.03;;;;;;;10.79;100.00;101201.09;4968549;28;20039;-75
2022/09/25 06:20:29;;;;;;;11.70;2.15;;;;;;;10.72;100.00;101195.69;4982050;28;20053;-75
2022/09/25 06:22:55;;;;;;;5.07;2.03;;;;;;;10.70;100.00;101208.00;4969596;28;20407;-76
2022/09/25 06:25:25;;;;;;;7.10;1.60;;;;;;;10.76;100.00;101211.78;4998779;28;20066;-76
2022/09/25 06:27:55;;;;;;;7.65;1.88;;;;;;;10.89;100.00;101207.03;4984646;28;20684;-76
2022/09/25 06:30:23;;;;;;;6.03;1.90;;;;;;;11.22;100.00;101208.09;4984965;28;20034;-75
2022/09/25 06:32:50;;;;;;;5.35;1.83;;;;;;;11.65;99.19;101210.84;4984253;28;20116;-76
2022/09/25 06:35:15;;;;;;;5.38;1.58;;;;;;;12.29;96.86;101208.75;4989040;28;20040;-76
2022/09/25 06:37:41;;;;;;;8.63;1.63;;;;;;;12.89;92.82;101207.78;4969169;28;20030;-76
2022/09/25 06:40:07;;;;;;;14.07;1.98;;;;;;;13.31;89.27;101206.81;4985560;28;20695;-76
2022/09/25 06:42:34;;;;;;;5.47;1.85;;;;;;;13.92;85.84;101198.56;4984982;28;20027;-77
2022/09/25 06:45:00;;;;;;;8.90;3.08;;;;;;;13.94;81.87;101212.25;4986603;28;20693;-76
2022/09/25 06:47:25;;;;;;;13.32;2.95;;;;;;;14.07;80.65;101198.66;4986170;28;20072;-76
2022/09/25 06:49:51;;;;;;;6.45;1.45;;;;;;;13.39;82.16;101208.59;4982996;28;20534;-76
2022/09/25 06:52:16;;;;;;;10.50;2.17;;;;;;;13.57;83.46;101211.03;4987262;28;20026;-77
2022/09/25 06:54:42;;;;;;;9.43;2.03;;;;;;;13.89;82.15;101209.34;4967441;28;20034;-75
2022/09/25 06:57:08;;;;;;;6.45;1.73;;;;;;;14.38;81.26;101216.97;4979813;28;20034;-76
2022/09/25 06:59:34;;;;;;;13.02;1.90;;;;;;;14.23;77.10;101224.69;4985827;28;20045;-75
2022/09/25 07:03:43;;;;;;;12.68;1.70;;;;;;;13.68;80.51;101221.13;4980017;28;20045;-76
2022/09/25 07:04:49;;;;;;;6.88;1.60;;;;;;;13.92;81.90;101211.59;4981631;28;20069;-76
2022/09/25 07:07:18;;;;;;;8.43;1.73;;;;;;;14.92;78.11;101211.78;4982579;28;20042;-76
2022/09/25 07:09:43;;;;;;;6.85;1.67;;;;;;;15.71;74.44;101207.97;4982238;28;20045;-76
2022/09/25 07:12:10;;;;;;;12.43;1.85;;;;;;;16.34;71.93;101211.00;4992067;28;20115;-77
2022/09/25 07:14:36;;;;;;;11.27;1.45;;;;;;;16.84;69.27;101209.34;4970459;28;20577;-78
2022/09/25 07:17:01;;;;;;;5.15;1.50;;;;;;;16.96;66.79;101211.47;4969022;28;20038;-77
2022/09/25 07:19:27;;;;;;;7.32;1.52;;;;;;;16.74;66.39;101214.03;4975503;28;20038;-77
2022/09/25 07:21:53;;;;;;;4.97;1.35;;;;;;;16.91;65.68;101214.63;4966625;28;20026;-76
2022/09/25 07:24:20;;;;;;;6.78;2.35;;;;;;;16.92;66.03;101218.88;4986416;28;20049;-76
2022/09/25 07:26:46;;;;;;;6.43;1.55;;;;;;;17.13;65.21;101218.06;4970907;28;20034;-77
2022/09/25 07:29:12;;;;;;;7.53;1.75;;;;;;;17.30;64.26;101218.59;4986719;28;20030;-78
2022/09/25 07:31:37;;;;;;;8.82;1.45;;;;;;;17.61;63.68;101220.00;4985796;28;20053;-77
2022/09/25 07:34:07;;;;;;;7.35;1.45;;;;;;;17.46;63.27;101215.69;4983634;28;20123;-77
2022/09/25 07:36:34;;;;;;;7.35;1.45;;;;;;;17.20;62.78;101224.16;4981400;28;20030;-78
2022/09/25 07:38:59;;;;;;;8.43;1.00;;;;;;;17.53;63.23;101220.97;4985292;28;22012;-77
2022/09/25 07:41:25;;;;;;;8.30;1.20;;;;;;;18.03;62.17;101226.94;4987016;28;20038;-79
2022/09/25 07:43:52;;;;;;;11.05;1.10;;;;;;;18.07;62.32;101225.53;4969186;28;20038;-77
2022/09/25 07:46:17;;;;;;;5.05;1.08;;;;;;;18.38;60.36;101218.19;4987539;28;20026;-77
2022/09/25 07:48:43;;;;;;;6.30;1.20;;;;;;;18.51;60.26;101220.03;4987496;28;20670;-77
2022/09/25 07:51:11;;;;;;;7.65;1.17;;;;;;;18.65;60.02;101224.31;4973574;28;20217;-78
2022/09/25 07:53:37;;;;;;;7.22;1.20;;;;;;;18.70;59.10;101219.25;4972565;28;20480;-77
2022/09/25 07:56:03;;;;;;;10.55;2.95;;;;;;;18.60;58.33;101219.66;4980966;28;20022;-77
2022/09/25 07:58:28;;;;;;;8.02;1.75;;;;;;;19.04;58.09;101220.97;4984199;28;20407;-78
2022/09/25 08:00:58;;;;;;;14.25;1.77;;;;;;;19.33;57.96;101215.50;4968485;28;20038;-78
2022/09/25 08:03:24;;;;;;;15.68;2.08;;;;;;;19.31;56.56;101210.44;4983932;28;20041;-77
2022/09/25 08:06:00;;;;;;;5.47;1.65;;;;;;;19.53;56.71;101208.38;4984653;28;20038;-78
2022/09/25 08:08:29;;;;;;;8.35;1.33;;;;;;;19.09;56.87;101212.47;4971970;28;20045;-77
2022/09/25 08:11:10;;;;;;;5.95;1.17;;;;;;;19.36;56.19;101218.50;4980946;28;20046;-78
2022/09/25 08:13:37;;;;;;;7.43;1.33;;;;;;;19.61;55.27;101215.25;4984763;28;20120;-79
2022/09/25 08:16:10;;;;;;;7.40;1.10;;;;;;;19.39;55.61;101214.69;4978342;28;20038;-79
2022/09/25 08:18:35;;;;;;;9.38;1.15;;;;;;;19.55;55.48;101221.31;4969625;28;20117;-79
2022/09/25 08:21:04;;;;;;;11.23;1.67;;;;;;;19.23;55.57;101214.09;4970917;28;20236;-77
2022/09/25 08:23:30;;;;;;;8.52;1.27;;;;;;;19.86;55.07;101211.97;4984611;28;20451;-78
2022/09/25 08:25:56;;;;;;;6.47;1.02;;;;;;;20.05;54.27;101223.44;4970667;28;20091;-78
2022/09/25 08:28:22;;;;;;;9.15;1.20;;;;;;;19.99;54.15;101219.81;4970859;28;20081;-78
2022/09/25 08:30:48;;;;;;;6.63;1.10;;;;;;;20.01;54.71;101217.78;4986960;28;20403;-78
2022/09/25 08:33:13;;;;;;;6.97;1.85;;;;;;;20.37;53.51;101209.31;4987062;28;20037;-77
2022/09/25 08:35:42;;;;;;;7.88;1.35;;;;;;;20.46;52.04;101212.50;4984519;28;20034;-78
2022/09/25 08:38:10;;;;;;;8.32;1.00;;;;;;;20.55;52.61;101213.06;4967085;28;20027;-79
2022/09/25 08:40:50;;;;;;;4.65;1.17;;;;;;;20.30;52.23;101210.38;4980048;28;20467;-78
2022/09/25 08:43:21;;;;;;;13.43;1.70;;;;;;;20.13;52.55;101220.56;4986208;28;20046;-78
2022/09/25 08:49:20;;;;;;;10.27;1.08;;;;;;;19.43;53.55;101218.50;5001857;28;20030;-78
2022/09/25 08:51:27;;;;;;;6.25;1.10;;;;;;;19.75;54.18;101208.16;4978341;28;20042;-78
2022/09/25 08:53:53;;;;;;;9.65;1.42;;;;;;;19.60;53.62;101211.78;4967025;28;20058;-77
2022/09/25 08:56:19;;;;;;;6.43;1.20;;;;;;;19.12;53.46;101219.13;4968825;28;20464;-78
2022/09/25 08:59:01;;;;;;;8.95;1.67;;;;;;;18.68;55.14;101216.03;4981962;28;20022;-79
2022/09/25 09:01:42;;;;;;;10.00;1.27;;;;;;;18.47;56.98;101214.38;4983279;28;20034;-79
2022/09/25 09:04:31;;;;;;;8.10;1.60;;;;;;;18.70;54.36;101213.22;4965562;28;20038;-78
2022/09/25 09:07:38;;;;;;;6.53;1.55;;;;;;;18.91;56.89;101220.13;4984751;28;20042;-78
2022/09/25 09:10:21;;;;;;;13.77;1.10;;;;;;;18.74;56.67;101219.69;4933386;28;20035;-79
2022/09/25 09:13:00;;;;;;;5.40;1.20;;;;;;;18.15;57.13;101221.13;4945319;28;20062;-76
2022/09/25 09:15:29;;;;;;;9.15;0.80;;;;;;;17.94;57.39;101224.69;4982707;28;20042;-80
2022/09/25 09:17:58;;;;;;;9.60;0.80;;;;;;;17.90;58.03;101219.00;4983715;28;20403;-76
2022/09/25 09:20:41;;;;;;;11.80;1.63;;;;;;;17.24;59.24;101220.16;4984241;28;20033;-78
2022/09/25 09:23:15;;;;;;;6.75;0.88;;;;;;;17.48;59.91;101216.31;4985388;28;20038;-78
2022/09/25 09:25:49;;;;;;;12.65;1.60;;;;;;;17.80;59.50;101221.97;4967561;28;20034;-80
2022/09/25 09:28:40;;;;;;;6.82;1.27;;;;;;;17.82;58.74;101219.13;4968656;28;20043;-79
2022/09/25 09:31:19;;;;;;;4.80;0.90;;;;;;;18.24;57.83;101215.50;4981427;28;20048;-79
2022/09/25 09:33:47;;;;;;;7.13;1.35;;;;;;;18.46;55.40;101215.41;4982304;28;20038;-78
2022/09/25 09:36:29;;;;;;;8.57;1.30;;;;;;;18.27;55.86;101209.88;4985450;28;20452;-77
2022/09/25 09:39:16;;;;;;;10.77;0.90;;;;;;;17.92;58.51;101213.56;5004083;28;20033;-79
2022/09/25 09:42:09;;;;;;;6.10;1.38;;;;;;;18.17;57.62;101201.56;4987510;28;20088;-78
2022/09/25 09:45:01;;;;;;;7.80;1.08;;;;;;;17.55;57.39;101211.09;4986989;28;20030;-77
2022/09/25 09:47:39;;;;;;;7.85;1.05;;;;;;;17.36;57.90;101217.03;4985738;28;20050;-79
2022/09/25 09:50:10;;;;;;;5.07;0.80;;;;;;;16.96;60.04;101212.28;4987539;28;20439;-76
2022/09/25 09:52:39;;;;;;;8.57;0.90;;;;;;;17.00;59.43;101213.50;4984694;28;20026;-79
2022/09/25 09:55:25;;;;;;;7.18;1.00;;;;;;;17.11;58.53;101220.06;4971619;28;20076;-78
2022/09/25 09:58:03;;;;;;;7.20;0.98;;;;;;;16.63;59.77;101219.78;5002920;28;20142;-78
2022/09/25 10:00:29;;;;;;;7.88;1.15;;;;;;;16.88;60.74;101215.84;4987209;28;20049;-79
2022/09/25 10:03:00;;;;;;;10.82;1.67;;;;;;;17.09;59.98;101212.38;4986584;28;20035;-79
2022/09/25 10:05:31;;;;;;;6.10;0.75;;;;;;;17.37;58.07;101216.84;4983815;28;20057;-79
2022/09/25 10:07:57;;;;;;;6.63;0.80;;;;;;;17.10;56.82;101215.81;4976482;28;20034;-78
2022/09/25 10:10:34;;;;;;;8.23;0.90;;;;;;;17.34;57.43;101213.78;4990533;28;20435;-78
2022/09/25 10:13:05;;;;;;;10.63;1.02;;;;;;;17.07;58.97;101213.59;4984534;28;20026;-77
2022/09/25 10:15:57;;;;;;;7.43;0.73;;;;;;;16.86;58.59;101215.22;4972855;28;20034;-80
2022/09/25 10:18:30;;;;;;;5.82;0.85;;;;;;;17.08;58.72;101209.94;4969932;28;20046;-81
2022/09/25 10:21:05;;;;;;;6.45;0.63;;;;;;;17.44;58.91;101199.34;4977789;28;20447;-79
2022/09/25 10:23:45;;;;;;;6.30;0.55;;;;;;;17.49;57.23;101198.75;4983577;28;20491;-78
2022/09/25 10:26:30;;;;;;;5.25;0.70;;;;;;;17.48;57.78;101191.91;4967707;28;20483;-78
2022/09/25 10:28:59;;;;;;;6.18;0.88;;;;;;;17.36;57.19;101212.59;4983913;28;20040;-80
2022/09/25 10:31:30;;;;;;;3.70;0.60;;;;;;;17.06;57.05;101197.03;4972330;28;20101;-79
2022/09/25 10:34:11;;;;;;;3.72;0.60;;;;;;;17.20;55.76;101203.22;4976641;28;20031;-79
2022/09/25 10:36:43;;;;;;;8.43;0.82;;;;;;;17.17;56.40;101202.78;4983954;28;20054;-79
2022/09/25 10:39:39;;;;;;;2.53;0.70;;;;;;;17.47;58.21;101192.91;4987216;28;20637;-78
2022/09/25 10:42:38;;;;;;;7.82;1.10;;;;;;;17.53;55.96;101192.13;4969937;28;20062;-76
2022/09/25 10:45:21;;;;;;;4.38;0.88;;;;;;;17.09;58.10;101188.81;4967202;28;20042;-78
2022/09/25 10:50:35;;;;;;;6.15;0.65;;;;;;;17.32;56.30;101185.94;4985641;28;20041;-79
2022/09/25 10:53:03;;;;;;;6.88;1.05;;;;;;;17.36;56.85;101189.00;4986109;28;20092;-77
2022/09/25 10:55:45;;;;;;;7.90;1.52;;;;;;;17.58;54.99;101195.00;4987465;28;20034;-78
2022/09/25 10:58:10;;;;;;;4.10;0.88;;;;;;;17.66;55.11;101192.22;4984966;28;20061;-78
2022/09/25 11:00:52;;;;;;;8.70;0.90;;;;;;;17.43;54.12;101192.47;4985654;28;20125;-78
2022/09/25 11:03:31;;;;;;;2.55;0.70;;;;;;;17.00;53.80;101191.75;4983555;28;20042;-80
2022/09/25 11:06:04;;;;;;;4.22;0.60;;;;;;;16.82;55.53;101190.41;4985491;28;20061;-79
2022/09/25 11:08:35;;;;;;;4.55;0.77;;;;;;;16.92;56.22;101197.94;4987613;28;20778;-80
2022/09/25 11:11:03;;;;;;;6.30;0.90;;;;;;;16.86;55.14;101188.22;4987523;28;20046;-80
2022/09/25 11:13:37;;;;;;;5.10;0.98;;;;;;;17.03;55.38;101189.56;4976154;28;20038;-79
2022/09/25 11:16:09;;;;;;;9.05;0.85;;;;;;;17.36;55.71;101186.38;4985361;28;20078;-79
2022/09/25 11:18:34;;;;;;;4.95;1.33;;;;;;;17.56;55.23;101190.94;4983495;28;20034;-78
2022/09/25 11:21:02;;;;;;;5.75;0.82;;;;;;;17.43;53.96;101182.00;4970198;28;20029;-77
2022/09/25 11:23:41;;;;;;;3.92;0.60;;;;;;;17.24;55.86;101175.63;4969934;28;20105;-77
2022/09/25 11:26:14;;;;;;;6.47;1.10;;;;;;;17.62;55.95;101174.44;4969362;28;20057;-79
2022/09/25 11:28:43;;;;;;;4.88;0.70;;;;;;;17.49;55.64;101172.56;4969760;28;20034;-79
2022/09/25 11:31:31;;;;;;;2.35;0.70;;;;;;;17.60;55.04;101168.59;4970742;28;20038;-81
2022/09/25 11:34:34;;;;;;;6.35;0.80;;;;;;;17.89;54.62;101167.53;4965996;28;20039;-79
2022/09/25 11:37:34;;;;;;;1.95;0.55;;;;;;;17.60;51.88;101177.25;4970813;28;20038;-79
2022/09/25 11:43:07;;;;;;;;;;;;;;;17.24;50.31;101166.97;4989121;28;20125;-79
2022/09/25 11:45:50;;;;;;;2.15;0.35;;;;;;;17.41;51.72;101173.50;4972876;28;20483;-76
2022/09/25 11:48:49;;;;;;;;;;;;;;;17.37;49.94;101174.09;4969877;28;20070;-79
2022/09/25 11:51:21;;;;;;;5.03;0.50;;;;;;;17.24;50.35;101166.97;4951739;28;19995;-81
2022/09/25 11:54:11;;;;;;;7.95;1.70;;;;;;;17.54;52.14;101162.31;4986255;28;20034;-77